sensor_id;sensor_type;location;lat;lon;timestamp;pressure;altitude;pressure_sealevel;temperature;humidity
70982;BME280;58640;51.320;9.456;2023-03-21T00:01:52;99462.59;;;8.25;80.38
70982;BME280;58640;51.320;9.456;2023-03-21T00:04:17;99467.75;;;8.52;78.96
70982;BME280;58640;51.320;9.456;2023-03-21T00:06:43;99456.78;;;8.38;79.35
70982;BME280;58640;51.320;9.456;2023-03-21T00:09:08;99454.75;;;8.32;79.68
70982;BME280;58640;51.320;9.456;2023-03-21T00:11:33;99455.44;;;8.34;79.71
70982;BME280;58640;51.320;9.456;2023-03-21T00:13:59;99457.25;;;8.25;80.52
70982;BME280;58640;51.320;9.456;2023-03-21T00:16:26;99456.94;;;8.36;79.42
70982;BME280;58640;51.320;9.456;2023-03-21T00:18:55;99455.34;;;8.51;78.07
70982;BME280;58640;51.320;9.456;2023-03-21T00:21:22;99447.78;;;8.47;78.57
70982;BME280;58640;51.320;9.456;2023-03-21T00:23:53;99451.47;;;8.20;79.73
70982;BME280;58640;51.320;9.456;2023-03-21T00:26:19;99441.59;;;8.46;78.66
70982;BME280;58640;51.320;9.456;2023-03-21T00:28:44;99440.22;;;8.34;79.26
70982;BME280;58640;51.320;9.456;2023-03-21T00:31:10;99435.50;;;8.36;78.97
70982;BME280;58640;51.320;9.456;2023-03-21T00:33:35;99437.34;;;8.28;79.21
70982;BME280;58640;51.320;9.456;2023-03-21T00:36:03;99436.81;;;8.24;80.10
70982;BME280;58640;51.320;9.456;2023-03-21T00:38:28;99439.25;;;8.18;80.06
70982;BME280;58640;51.320;9.456;2023-03-21T00:40:54;99437.69;;;8.41;79.20
70982;BME280;58640;51.320;9.456;2023-03-21T00:43:20;99436.16;;;8.30;79.47
70982;BME280;58640;51.320;9.456;2023-03-21T00:45:54;99427.22;;;8.22;79.62
70982;BME280;58640;51.320;9.456;2023-03-21T00:48:20;99426.97;;;8.33;79.37
70982;BME280;58640;51.320;9.456;2023-03-21T00:50:45;99424.69;;;8.20;79.89
70982;BME280;58640;51.320;9.456;2023-03-21T00:53:12;99427.06;;;8.23;79.97
70982;BME280;58640;51.320;9.456;2023-03-21T00:55:37;99433.06;;;8.17;79.66
70982;BME280;58640;51.320;9.456;2023-03-21T00:58:03;99424.69;;;8.20;79.91
70982;BME280;58640;51.320;9.456;2023-03-21T01:00:29;99419.91;;;8.32;79.27
70982;BME280;58640;51.320;9.456;2023-03-21T01:02:55;99423.56;;;8.23;79.68
70982;BME280;58640;51.320;9.456;2023-03-21T01:05:25;99415.91;;;8.28;79.00
70982;BME280;58640;51.320;9.456;2023-03-21T01:08:14;99424.81;;;8.44;78.22
70982;BME280;58640;51.320;9.456;2023-03-21T01:10:42;99422.63;;;8.40;77.99
70982;BME280;58640;51.320;9.456;2023-03-21T01:13:09;99414.09;;;8.44;78.20
70982;BME280;58640;51.320;9.456;2023-03-21T01:15:35;99418.47;;;8.45;78.06
70982;BME280;58640;51.320;9.456;2023-03-21T01:18:01;99416.88;;;8.27;79.38
70982;BME280;58640;51.320;9.456;2023-03-21T01:20:28;99410.38;;;8.29;78.82
70982;BME280;58640;51.320;9.456;2023-03-21T01:22:53;99410.03;;;8.24;79.13
70982;BME280;58640;51.320;9.456;2023-03-21T01:25:19;99413.97;;;8.20;79.05
70982;BME280;58640;51.320;9.456;2023-03-21T01:27:44;99407.50;;;8.23;79.01
70982;BME280;58640;51.320;9.456;2023-03-21T01:30:10;99418.69;;;8.18;79.38
70982;BME280;58640;51.320;9.456;2023-03-21T01:32:36;99415.84;;;8.20;79.07
70982;BME280;58640;51.320;9.456;2023-03-21T01:35:01;99410.19;;;8.23;78.97
70982;BME280;58640;51.320;9.456;2023-03-21T01:37:27;99412.97;;;8.13;79.48
70982;BME280;58640;51.320;9.456;2023-03-21T01:39:52;99412.09;;;8.13;79.42
70982;BME280;58640;51.320;9.456;2023-03-21T01:42:17;99416.16;;;8.17;79.14
70982;BME280;58640;51.320;9.456;2023-03-21T01:45:01;99406.94;;;8.19;79.35
70982;BME280;58640;51.320;9.456;2023-03-21T01:47:27;99405.19;;;8.28;78.66
70982;BME280;58640;51.320;9.456;2023-03-21T01:49:56;99394.94;;;8.31;78.34
70982;BME280;58640;51.320;9.456;2023-03-21T01:52:26;99401.75;;;8.18;78.96
70982;BME280;58640;51.320;9.456;2023-03-21T01:54:54;99397.41;;;8.17;78.93
70982;BME280;58640;51.320;9.456;2023-03-21T01:57:24;99389.63;;;8.06;79.98
70982;BME280;58640;51.320;9.456;2023-03-21T01:59:56;99388.78;;;7.97;80.09
70982;BME280;58640;51.320;9.456;2023-03-21T02:02:28;99386.47;;;8.02;80.26
70982;BME280;58640;51.320;9.456;2023-03-21T02:04:56;99388.34;;;8.18;78.93
70982;BME280;58640;51.320;9.456;2023-03-21T02:07:29;99397.41;;;8.17;79.52
70982;BME280;58640;51.320;9.456;2023-03-21T02:09:57;99383.13;;;8.08;79.42
70982;BME280;58640;51.320;9.456;2023-03-21T02:12:24;99373.78;;;8.20;79.25
70982;BME280;58640;51.320;9.456;2023-03-21T02:14:50;99389.13;;;8.02;79.98
70982;BME280;58640;51.320;9.456;2023-03-21T02:21:06;99374.00;;;7.93;80.48
70982;BME280;58640;51.320;9.456;2023-03-21T02:33:20;99357.22;;;8.17;78.62
70982;BME280;58640;51.320;9.456;2023-03-21T02:38:59;99353.63;;;8.00;79.88
70982;BME280;58640;51.320;9.456;2023-03-21T02:41:48;99358.78;;;7.94;80.28
70982;BME280;58640;51.320;9.456;2023-03-21T02:44:31;99353.94;;;7.89;80.58
70982;BME280;58640;51.320;9.456;2023-03-21T02:47:06;99346.41;;;7.93;80.41
70982;BME280;58640;51.320;9.456;2023-03-21T02:52:24;99356.28;;;7.92;80.46
70982;BME280;58640;51.320;9.456;2023-03-21T02:54:52;99365.56;;;8.14;79.63
70982;BME280;58640;51.320;9.456;2023-03-21T02:57:20;99368.50;;;7.95;79.97
70982;BME280;58640;51.320;9.456;2023-03-21T02:59:47;99362.50;;;8.01;79.76
70982;BME280;58640;51.320;9.456;2023-03-21T03:02:15;99354.84;;;8.14;78.58
70982;BME280;58640;51.320;9.456;2023-03-21T03:04:41;99359.72;;;8.18;78.56
70982;BME280;58640;51.320;9.456;2023-03-21T03:12:39;99363.53;;;8.08;79.35
70982;BME280;58640;51.320;9.456;2023-03-21T03:17:50;99356.28;;;7.92;80.27
70982;BME280;58640;51.320;9.456;2023-03-21T03:20:27;99357.06;;;8.18;79.25
70982;BME280;58640;51.320;9.456;2023-03-21T03:25:36;99349.66;;;8.20;78.76
70982;BME280;58640;51.320;9.456;2023-03-21T03:28:04;99338.94;;;8.12;79.29
70982;BME280;58640;51.320;9.456;2023-03-21T03:30:31;99352.47;;;8.11;79.74
70982;BME280;58640;51.320;9.456;2023-03-21T03:33:00;99346.47;;;8.09;79.36
70982;BME280;58640;51.320;9.456;2023-03-21T03:35:27;99341.16;;;8.17;79.16
70982;BME280;58640;51.320;9.456;2023-03-21T03:37:56;99337.09;;;8.13;79.14
70982;BME280;58640;51.320;9.456;2023-03-21T03:40:45;99336.44;;;8.19;78.93
70982;BME280;58640;51.320;9.456;2023-03-21T03:43:17;99323.50;;;7.98;80.34
70982;BME280;58640;51.320;9.456;2023-03-21T03:45:58;99337.78;;;8.15;78.84
70982;BME280;58640;51.320;9.456;2023-03-21T03:48:29;99330.38;;;8.01;79.63
70982;BME280;58640;51.320;9.456;2023-03-21T03:51:01;99330.97;;;7.87;80.29
70982;BME280;58640;51.320;9.456;2023-03-21T03:53:34;99333.50;;;7.96;79.83
70982;BME280;58640;51.320;9.456;2023-03-21T03:56:02;99330.53;;;7.99;79.94
70982;BME280;58640;51.320;9.456;2023-03-21T03:58:28;99337.69;;;8.24;78.60
70982;BME280;58640;51.320;9.456;2023-03-21T04:00:54;99331.06;;;8.11;79.35
70982;BME280;58640;51.320;9.456;2023-03-21T04:03:20;99331.13;;;8.27;78.47
70982;BME280;58640;51.320;9.456;2023-03-21T04:05:46;99328.38;;;8.11;78.93
70982;BME280;58640;51.320;9.456;2023-03-21T04:08:13;99324.84;;;8.02;80.03
70982;BME280;58640;51.320;9.456;2023-03-21T04:10:43;99331.38;;;8.08;79.21
70982;BME280;58640;51.320;9.456;2023-03-21T04:13:08;99328.66;;;7.92;80.41
70982;BME280;58640;51.320;9.456;2023-03-21T04:15:34;99328.47;;;7.93;80.46
70982;BME280;58640;51.320;9.456;2023-03-21T04:17:59;99324.22;;;8.16;79.31
70982;BME280;58640;51.320;9.456;2023-03-21T04:20:25;99327.91;;;8.15;78.98
70982;BME280;58640;51.320;9.456;2023-03-21T04:22:51;99320.66;;;8.00;80.14
70982;BME280;58640;51.320;9.456;2023-03-21T04:25:18;99324.00;;;8.02;80.35
70982;BME280;58640;51.320;9.456;2023-03-21T04:27:44;99327.31;;;7.88;82.24
70982;BME280;58640;51.320;9.456;2023-03-21T04:30:11;99323.41;;;7.82;83.38
70982;BME280;58640;51.320;9.456;2023-03-21T04:32:37;99323.31;;;8.00;82.23
70982;BME280;58640;51.320;9.456;2023-03-21T04:35:05;99313.09;;;7.95;82.37
70982;BME280;58640;51.320;9.456;2023-03-21T04:37:30;99315.59;;;7.89;82.77
70982;BME280;58640;51.320;9.456;2023-03-21T04:39:58;99315.78;;;7.95;82.71
70982;BME280;58640;51.320;9.456;2023-03-21T04:42:23;99311.41;;;7.86;82.68
70982;BME280;58640;51.320;9.456;2023-03-21T04:44:48;99313.88;;;7.80;83.49
70982;BME280;58640;51.320;9.456;2023-03-21T04:47:14;99309.22;;;7.82;82.76
70982;BME280;58640;51.320;9.456;2023-03-21T04:49:41;99317.53;;;7.71;83.90
70982;BME280;58640;51.320;9.456;2023-03-21T04:52:07;99322.19;;;7.69;84.14
70982;BME280;58640;51.320;9.456;2023-03-21T04:54:32;99315.56;;;7.81;82.88
70982;BME280;58640;51.320;9.456;2023-03-21T04:56:58;99316.03;;;7.76;83.06
70982;BME280;58640;51.320;9.456;2023-03-21T04:59:23;99310.19;;;7.81;83.24
70982;BME280;58640;51.320;9.456;2023-03-21T05:01:49;99307.88;;;7.86;82.54
70982;BME280;58640;51.320;9.456;2023-03-21T05:04:16;99301.47;;;7.79;82.86
70982;BME280;58640;51.320;9.456;2023-03-21T05:06:42;99306.28;;;8.01;81.69
70982;BME280;58640;51.320;9.456;2023-03-21T05:09:08;99307.22;;;7.92;82.21
70982;BME280;58640;51.320;9.456;2023-03-21T05:11:35;99310.91;;;7.91;81.74
70982;BME280;58640;51.320;9.456;2023-03-21T05:14:03;99309.84;;;7.76;83.11
70982;BME280;58640;51.320;9.456;2023-03-21T05:16:29;99314.66;;;7.64;83.75
70982;BME280;58640;51.320;9.456;2023-03-21T05:18:56;99314.66;;;7.64;84.00
70982;BME280;58640;51.320;9.456;2023-03-21T05:21:24;99310.56;;;7.86;82.81
70982;BME280;58640;51.320;9.456;2023-03-21T05:23:53;99319.81;;;7.99;81.89
70982;BME280;58640;51.320;9.456;2023-03-21T05:26:20;99321.63;;;7.91;82.52
70982;BME280;58640;51.320;9.456;2023-03-21T05:28:46;99316.44;;;7.89;82.57
70982;BME280;58640;51.320;9.456;2023-03-21T05:31:13;99311.06;;;7.89;82.66
70982;BME280;58640;51.320;9.456;2023-03-21T05:33:41;99315.97;;;8.02;81.91
70982;BME280;58640;51.320;9.456;2023-03-21T05:36:07;99315.28;;;8.00;81.92
70982;BME280;58640;51.320;9.456;2023-03-21T05:38:32;99320.09;;;7.80;82.81
70982;BME280;58640;51.320;9.456;2023-03-21T05:40:57;99317.75;;;7.85;82.54
70982;BME280;58640;51.320;9.456;2023-03-21T05:43:23;99321.94;;;7.88;82.33
70982;BME280;58640;51.320;9.456;2023-03-21T05:45:48;99317.28;;;7.90;82.87
70982;BME280;58640;51.320;9.456;2023-03-21T05:48:14;99313.88;;;7.80;83.25
70982;BME280;58640;51.320;9.456;2023-03-21T05:50:39;99316.66;;;8.04;81.76
70982;BME280;58640;51.320;9.456;2023-03-21T05:53:05;99305.59;;;7.99;81.77
70982;BME280;58640;51.320;9.456;2023-03-21T05:55:31;99319.69;;;8.09;81.38
70982;BME280;58640;51.320;9.456;2023-03-21T05:57:56;99310.34;;;8.21;80.82
70982;BME280;58640;51.320;9.456;2023-03-21T06:00:22;99313.25;;;8.35;80.35
70982;BME280;58640;51.320;9.456;2023-03-21T06:02:47;99305.38;;;8.42;79.78
70982;BME280;58640;51.320;9.456;2023-03-21T06:05:12;99306.69;;;8.38;79.61
70982;BME280;58640;51.320;9.456;2023-03-21T06:07:38;99310.44;;;8.61;78.92
70982;BME280;58640;51.320;9.456;2023-03-21T06:10:04;99307.91;;;8.43;78.80
70982;BME280;58640;51.320;9.456;2023-03-21T06:12:30;99313.91;;;8.29;79.69
70982;BME280;58640;51.320;9.456;2023-03-21T06:14:55;99313.50;;;8.16;80.21
70982;BME280;58640;51.320;9.456;2023-03-21T06:17:20;99319.03;;;8.15;81.01
70982;BME280;58640;51.320;9.456;2023-03-21T06:19:46;99318.50;;;8.11;80.38
70982;BME280;58640;51.320;9.456;2023-03-21T06:22:11;99309.88;;;8.25;80.06
70982;BME280;58640;51.320;9.456;2023-03-21T06:24:36;99305.38;;;8.42;79.15
70982;BME280;58640;51.320;9.456;2023-03-21T06:27:02;99313.44;;;8.58;78.51
70982;BME280;58640;51.320;9.456;2023-03-21T06:29:27;99307.75;;;8.53;78.98
70982;BME280;58640;51.320;9.456;2023-03-21T06:31:53;99311.28;;;8.61;78.55
70982;BME280;58640;51.320;9.456;2023-03-21T06:34:18;99304.88;;;8.46;79.12
70982;BME280;58640;51.320;9.456;2023-03-21T06:36:44;99305.41;;;8.50;79.36
70982;BME280;58640;51.320;9.456;2023-03-21T06:39:11;99306.41;;;8.57;78.61
70982;BME280;58640;51.320;9.456;2023-03-21T06:41:36;99313.09;;;8.53;78.93
70982;BME280;58640;51.320;9.456;2023-03-21T06:44:02;99311.91;;;8.47;79.39
70982;BME280;58640;51.320;9.456;2023-03-21T06:46:27;99312.09;;;8.78;77.61
70982;BME280;58640;51.320;9.456;2023-03-21T06:48:53;99315.63;;;8.62;78.11
70982;BME280;58640;51.320;9.456;2023-03-21T06:51:18;99329.88;;;8.63;78.44
70982;BME280;58640;51.320;9.456;2023-03-21T06:53:43;99323.34;;;8.73;77.78
70982;BME280;58640;51.320;9.456;2023-03-21T06:56:11;99324.00;;;8.51;78.03
70982;BME280;58640;51.320;9.456;2023-03-21T06:58:37;99320.84;;;8.72;77.74
70982;BME280;58640;51.320;9.456;2023-03-21T07:01:04;99314.97;;;8.68;77.47
70982;BME280;58640;51.320;9.456;2023-03-21T07:03:29;99322.00;;;8.53;77.54
70982;BME280;58640;51.320;9.456;2023-03-21T07:05:56;99330.06;;;8.69;76.92
70982;BME280;58640;51.320;9.456;2023-03-21T07:08:22;99321.19;;;8.93;76.05
70982;BME280;58640;51.320;9.456;2023-03-21T07:10:47;99319.81;;;8.89;76.28
70982;BME280;58640;51.320;9.456;2023-03-21T07:13:13;99319.47;;;9.00;75.96
70982;BME280;58640;51.320;9.456;2023-03-21T07:15:38;99325.00;;;8.99;75.67
70982;BME280;58640;51.320;9.456;2023-03-21T07:18:06;99323.34;;;9.14;74.94
70982;BME280;58640;51.320;9.456;2023-03-21T07:20:32;99322.50;;;8.89;76.04
70982;BME280;58640;51.320;9.456;2023-03-21T07:22:58;99315.31;;;8.98;76.05
70982;BME280;58640;51.320;9.456;2023-03-21T07:25:24;99321.50;;;9.14;75.57
70982;BME280;58640;51.320;9.456;2023-03-21T07:27:49;99324.00;;;9.24;74.99
70982;BME280;58640;51.320;9.456;2023-03-21T07:30:15;99318.63;;;9.24;74.87
70982;BME280;58640;51.320;9.456;2023-03-21T07:32:40;99317.63;;;9.25;74.72
70982;BME280;58640;51.320;9.456;2023-03-21T07:35:08;99310.41;;;9.25;74.65
70982;BME280;58640;51.320;9.456;2023-03-21T07:37:35;99315.88;;;9.48;73.50
70982;BME280;58640;51.320;9.456;2023-03-21T07:40:00;99313.34;;;9.54;74.21
70982;BME280;58640;51.320;9.456;2023-03-21T07:42:26;99312.34;;;9.63;73.78
70982;BME280;58640;51.320;9.456;2023-03-21T07:44:51;99312.59;;;9.84;72.86
70982;BME280;58640;51.320;9.456;2023-03-21T07:47:19;99297.84;;;9.72;73.04
70982;BME280;58640;51.320;9.456;2023-03-21T07:49:44;99304.75;;;9.75;72.86
70982;BME280;58640;51.320;9.456;2023-03-21T07:52:10;99305.34;;;9.85;71.82
70982;BME280;58640;51.320;9.456;2023-03-21T07:54:35;99306.75;;;9.73;72.84
70982;BME280;58640;51.320;9.456;2023-03-21T07:57:00;99303.72;;;9.76;72.81
70982;BME280;58640;51.320;9.456;2023-03-21T07:59:26;99311.00;;;9.98;71.97
70982;BME280;58640;51.320;9.456;2023-03-21T08:01:51;99302.53;;;9.78;72.06
70982;BME280;58640;51.320;9.456;2023-03-21T08:04:17;99307.34;;;9.52;73.07
70982;BME280;58640;51.320;9.456;2023-03-21T08:06:42;99312.00;;;9.58;73.07
70982;BME280;58640;51.320;9.456;2023-03-21T08:09:07;99310.47;;;9.56;73.82
70982;BME280;58640;51.320;9.456;2023-03-21T08:11:33;99312.16;;;9.65;73.38
70982;BME280;58640;51.320;9.456;2023-03-21T08:13:59;99308.81;;;10.01;72.58
70982;BME280;58640;51.320;9.456;2023-03-21T08:16:26;99312.91;;;10.28;70.93
70982;BME280;58640;51.320;9.456;2023-03-21T08:18:51;99313.81;;;10.43;70.56
70982;BME280;58640;51.320;9.456;2023-03-21T08:21:16;99310.25;;;10.51;70.26
70982;BME280;58640;51.320;9.456;2023-03-21T08:23:42;99310.50;;;10.64;69.91
70982;BME280;58640;51.320;9.456;2023-03-21T08:26:07;99320.59;;;10.84;69.40
70982;BME280;58640;51.320;9.456;2023-03-21T08:28:33;99316.41;;;10.82;69.25
70982;BME280;58640;51.320;9.456;2023-03-21T08:31:05;99313.28;;;10.93;68.38
70982;BME280;58640;51.320;9.456;2023-03-21T08:33:31;99313.72;;;11.19;67.96
70982;BME280;58640;51.320;9.456;2023-03-21T08:35:58;99308.63;;;11.24;68.08
70982;BME280;58640;51.320;9.456;2023-03-21T08:38:24;99314.53;;;11.56;66.50
70982;BME280;58640;51.320;9.456;2023-03-21T08:40:50;99313.56;;;11.35;66.23
70982;BME280;58640;51.320;9.456;2023-03-21T08:43:15;99312.91;;;11.47;66.81
70982;BME280;58640;51.320;9.456;2023-03-21T08:45:40;99312.28;;;11.60;65.63
70982;BME280;58640;51.320;9.456;2023-03-21T08:48:06;99306.88;;;11.60;66.12
70982;BME280;58640;51.320;9.456;2023-03-21T08:50:31;99314.28;;;11.81;65.56
70982;BME280;58640;51.320;9.456;2023-03-21T08:52:56;99310.63;;;11.59;65.56
70982;BME280;58640;51.320;9.456;2023-03-21T08:55:23;99314.41;;;11.35;66.51
70982;BME280;58640;51.320;9.456;2023-03-21T08:57:48;99313.94;;;11.32;66.28
70982;BME280;58640;51.320;9.456;2023-03-21T09:00:16;99312.31;;;11.08;67.14
70982;BME280;58640;51.320;9.456;2023-03-21T09:02:47;99306.06;;;11.08;67.51
70982;BME280;58640;51.320;9.456;2023-03-21T09:05:14;99306.78;;;11.24;67.19
70982;BME280;58640;51.320;9.456;2023-03-21T09:07:41;99310.50;;;11.38;66.50
70982;BME280;58640;51.320;9.456;2023-03-21T09:10:09;99319.53;;;11.59;66.53
70982;BME280;58640;51.320;9.456;2023-03-21T09:12:36;99314.16;;;11.59;66.25
70982;BME280;58640;51.320;9.456;2023-03-21T09:15:01;99319.34;;;11.61;65.53
70982;BME280;58640;51.320;9.456;2023-03-21T09:17:28;99309.50;;;11.53;66.12
70982;BME280;58640;51.320;9.456;2023-03-21T09:19:53;99315.84;;;11.75;65.32
70982;BME280;58640;51.320;9.456;2023-03-21T09:22:19;99322.63;;;11.86;66.28
70982;BME280;58640;51.320;9.456;2023-03-21T09:24:46;99304.09;;;12.12;65.94
70982;BME280;58640;51.320;9.456;2023-03-21T09:27:13;99298.81;;;12.54;63.30
70982;BME280;58640;51.320;9.456;2023-03-21T09:29:39;99304.03;;;12.76;62.72
70982;BME280;58640;51.320;9.456;2023-03-21T09:32:08;99304.56;;;12.72;62.57
70982;BME280;58640;51.320;9.456;2023-03-21T09:34:33;99302.53;;;12.95;62.03
70982;BME280;58640;51.320;9.456;2023-03-21T09:37:01;99299.25;;;12.78;63.02
70982;BME280;58640;51.320;9.456;2023-03-21T09:39:27;99298.34;;;13.13;61.50
70982;BME280;58640;51.320;9.456;2023-03-21T09:49:41;99287.00;;;13.24;59.92
70982;BME280;58640;51.320;9.456;2023-03-21T09:52:20;99288.97;;;12.88;61.81
70982;BME280;58640;51.320;9.456;2023-03-21T09:54:46;99286.91;;;12.90;61.76
70982;BME280;58640;51.320;9.456;2023-03-21T09:57:33;99291.13;;;12.78;63.62
70982;BME280;58640;51.320;9.456;2023-03-21T10:00:05;99289.16;;;12.66;63.70
70982;BME280;58640;51.320;9.456;2023-03-21T10:02:41;99294.56;;;12.87;63.09
70982;BME280;58640;51.320;9.456;2023-03-21T10:08:08;99289.84;;;12.53;64.18
70982;BME280;58640;51.320;9.456;2023-03-21T10:10:46;99290.72;;;12.54;64.45
70982;BME280;58640;51.320;9.456;2023-03-21T10:13:20;99281.19;;;12.58;64.15
70982;BME280;58640;51.320;9.456;2023-03-21T10:15:47;99280.94;;;12.74;63.33
70982;BME280;58640;51.320;9.456;2023-03-21T10:18:20;99282.16;;;12.50;63.88
70982;BME280;58640;51.320;9.456;2023-03-21T10:20:46;99270.47;;;12.64;64.52
70982;BME280;58640;51.320;9.456;2023-03-21T10:23:14;99277.59;;;12.51;65.68
70982;BME280;58640;51.320;9.456;2023-03-21T10:25:43;99280.06;;;12.94;63.50
70982;BME280;58640;51.320;9.456;2023-03-21T10:28:23;99273.53;;;12.82;64.00
70982;BME280;58640;51.320;9.456;2023-03-21T10:30:55;99271.03;;;12.81;63.79
70982;BME280;58640;51.320;9.456;2023-03-21T10:33:26;99268.34;;;12.60;64.32
70982;BME280;58640;51.320;9.456;2023-03-21T10:35:55;99267.22;;;12.96;64.13
70982;BME280;58640;51.320;9.456;2023-03-21T10:38:24;99275.19;;;13.26;63.32
70982;BME280;58640;51.320;9.456;2023-03-21T10:40:49;99266.50;;;13.30;63.25
70982;BME280;58640;51.320;9.456;2023-03-21T10:45:51;99265.63;;;13.57;62.34
70982;BME280;58640;51.320;9.456;2023-03-21T10:48:16;99265.94;;;13.82;62.52
70982;BME280;58640;51.320;9.456;2023-03-21T10:50:45;99259.56;;;13.55;61.82
70982;BME280;58640;51.320;9.456;2023-03-21T10:53:38;99258.63;;;13.69;62.37
70982;BME280;58640;51.320;9.456;2023-03-21T10:56:08;99253.38;;;13.27;62.96
70982;BME280;58640;51.320;9.456;2023-03-21T10:58:38;99256.28;;;13.26;63.10
70982;BME280;58640;51.320;9.456;2023-03-21T11:01:09;99257.25;;;13.18;63.56
70982;BME280;58640;51.320;9.456;2023-03-21T11:03:41;99252.44;;;12.92;64.86
70982;BME280;58640;51.320;9.456;2023-03-21T11:08:48;99261.31;;;12.86;64.58
70982;BME280;58640;51.320;9.456;2023-03-21T11:11:33;99259.13;;;12.96;64.71
70982;BME280;58640;51.320;9.456;2023-03-21T11:14:02;99253.41;;;12.85;65.52
70982;BME280;58640;51.320;9.456;2023-03-21T11:16:38;99250.47;;;13.01;65.86
70982;BME280;58640;51.320;9.456;2023-03-21T11:19:12;99251.75;;;12.84;67.07
70982;BME280;58640;51.320;9.456;2023-03-21T11:21:38;99257.34;;;12.61;67.21
70982;BME280;58640;51.320;9.456;2023-03-21T11:24:04;99252.44;;;12.92;65.23
70982;BME280;58640;51.320;9.456;2023-03-21T11:26:35;99258.41;;;12.60;65.83
70982;BME280;58640;51.320;9.456;2023-03-21T11:31:45;99257.88;;;12.15;68.51
70982;BME280;58640;51.320;9.456;2023-03-21T11:34:23;99256.06;;;12.01;69.71
70982;BME280;58640;51.320;9.456;2023-03-21T11:36:51;99252.22;;;12.10;69.18
70982;BME280;58640;51.320;9.456;2023-03-21T11:39:32;99248.22;;;12.20;69.61
70982;BME280;58640;51.320;9.456;2023-03-21T11:41:58;99251.72;;;12.21;70.26
70982;BME280;58640;51.320;9.456;2023-03-21T11:44:28;99252.00;;;12.26;70.26
70982;BME280;58640;51.320;9.456;2023-03-21T11:46:54;99251.81;;;12.27;70.66
70982;BME280;58640;51.320;9.456;2023-03-21T11:49:21;99255.00;;;12.16;72.55
70982;BME280;58640;51.320;9.456;2023-03-21T12:00:28;99251.38;;;11.73;76.40
70982;BME280;58640;51.320;9.456;2023-03-21T12:03:22;99237.16;;;11.79;77.21
70982;BME280;58640;51.320;9.456;2023-03-21T12:05:55;99233.63;;;12.15;75.69
70982;BME280;58640;51.320;9.456;2023-03-21T12:08:44;99232.28;;;12.04;77.03
70982;BME280;58640;51.320;9.456;2023-03-21T12:14:15;99240.84;;;11.93;78.17
70982;BME280;58640;51.320;9.456;2023-03-21T12:17:09;99234.53;;;11.86;78.62
70982;BME280;58640;51.320;9.456;2023-03-21T12:20:06;99236.94;;;11.96;78.49
70982;BME280;58640;51.320;9.456;2023-03-21T12:22:44;99234.53;;;11.86;79.13
70982;BME280;58640;51.320;9.456;2023-03-21T12:28:09;99222.28;;;11.54;79.73
70982;BME280;58640;51.320;9.456;2023-03-21T12:30:53;99229.53;;;11.54;79.58
70982;BME280;58640;51.320;9.456;2023-03-21T12:33:38;99221.16;;;11.49;80.42
70982;BME280;58640;51.320;9.456;2023-03-21T12:36:15;99221.63;;;11.52;80.48
70982;BME280;58640;51.320;9.456;2023-03-21T12:39:29;99217.38;;;11.58;81.29
70982;BME280;58640;51.320;9.456;2023-03-21T12:42:04;99210.13;;;11.44;82.82
70982;BME280;58640;51.320;9.456;2023-03-21T12:44:38;99216.44;;;11.51;82.69
70982;BME280;58640;51.320;9.456;2023-03-21T12:47:11;99209.38;;;11.50;82.19
70982;BME280;58640;51.320;9.456;2023-03-21T12:49:42;99199.25;;;11.52;83.68
70982;BME280;58640;51.320;9.456;2023-03-21T12:52:14;99201.22;;;11.72;82.95
70982;BME280;58640;51.320;9.456;2023-03-21T12:54:49;99196.88;;;11.93;81.26
70982;BME280;58640;51.320;9.456;2023-03-21T12:57:24;99194.91;;;12.01;81.37
70982;BME280;58640;51.320;9.456;2023-03-21T13:02:41;99185.91;;;11.94;81.85
70982;BME280;58640;51.320;9.456;2023-03-21T13:05:18;99187.09;;;12.06;80.70
70982;BME280;58640;51.320;9.456;2023-03-21T13:07:49;99188.13;;;11.55;84.04
70982;BME280;58640;51.320;9.456;2023-03-21T13:10:18;99187.00;;;11.49;84.65
70982;BME280;58640;51.320;9.456;2023-03-21T13:18:56;99172.97;;;11.39;85.36
70982;BME280;58640;51.320;9.456;2023-03-21T13:26:39;99166.22;;;11.14;88.45
70982;BME280;58640;51.320;9.456;2023-03-21T13:29:26;99170.38;;;11.46;85.45
70982;BME280;58640;51.320;9.456;2023-03-21T13:31:54;99165.66;;;11.33;85.84
70982;BME280;58640;51.320;9.456;2023-03-21T13:34:24;99160.63;;;11.45;85.81
70982;BME280;58640;51.320;9.456;2023-03-21T13:36:51;99161.00;;;11.42;85.79
70982;BME280;58640;51.320;9.456;2023-03-21T13:39:25;99162.94;;;11.33;86.85
70982;BME280;58640;51.320;9.456;2023-03-21T13:41:51;99159.88;;;11.51;86.04
70982;BME280;58640;51.320;9.456;2023-03-21T13:44:52;99155.06;;;11.17;86.98
70982;BME280;58640;51.320;9.456;2023-03-21T13:47:41;99151.38;;;11.18;86.86
70982;BME280;58640;51.320;9.456;2023-03-21T13:55:42;99145.31;;;10.87;89.89
70982;BME280;58640;51.320;9.456;2023-03-21T13:58:38;99138.44;;;10.70;90.57
70982;BME280;58640;51.320;9.456;2023-03-21T14:04:03;99140.41;;;10.76;91.35
70982;BME280;58640;51.320;9.456;2023-03-21T14:09:03;99122.31;;;10.70;91.62
70982;BME280;58640;51.320;9.456;2023-03-21T14:11:31;99123.06;;;11.08;89.09
70982;BME280;58640;51.320;9.456;2023-03-21T14:13:59;99114.72;;;10.74;90.82
70982;BME280;58640;51.320;9.456;2023-03-21T14:16:26;99116.47;;;10.67;92.40
70982;BME280;58640;51.320;9.456;2023-03-21T14:18:58;99107.00;;;10.71;92.57
70982;BME280;58640;51.320;9.456;2023-03-21T14:21:26;99112.03;;;10.74;91.61
70982;BME280;58640;51.320;9.456;2023-03-21T14:24:02;99110.34;;;10.87;91.11
70982;BME280;58640;51.320;9.456;2023-03-21T14:26:37;99112.38;;;10.71;92.40
70982;BME280;58640;51.320;9.456;2023-03-21T14:29:05;99111.38;;;10.86;91.85
70982;BME280;58640;51.320;9.456;2023-03-21T14:31:31;99101.00;;;10.83;92.53
70982;BME280;58640;51.320;9.456;2023-03-21T14:33:58;99105.63;;;10.75;93.21
70982;BME280;58640;51.320;9.456;2023-03-21T14:36:30;99097.19;;;10.78;92.84
70982;BME280;58640;51.320;9.456;2023-03-21T14:39:25;99093.72;;;10.69;93.37
70982;BME280;58640;51.320;9.456;2023-03-21T14:42:11;99093.63;;;10.63;94.71
70982;BME280;58640;51.320;9.456;2023-03-21T14:44:47;99092.22;;;10.38;96.51
70982;BME280;58640;51.320;9.456;2023-03-21T14:47:18;99089.09;;;10.63;95.08